createdAt,value
2023-04-19T00:01:14.160Z,30.50
2023-04-19T00:03:44.513Z,30.56
2023-04-19T00:06:16.663Z,30.59
2023-04-19T00:08:46.833Z,30.65
2023-04-19T00:11:17.455Z,30.66
2023-04-19T00:13:47.641Z,30.61
2023-04-19T00:16:18.376Z,30.61
2023-04-19T00:18:48.537Z,30.63
2023-04-19T00:21:18.689Z,30.27
2023-04-19T00:23:49.471Z,30.67
2023-04-19T00:26:20.015Z,30.70
2023-04-19T00:28:54.655Z,30.71
2023-04-19T00:31:24.936Z,30.72
2023-04-19T00:33:55.025Z,30.75
2023-04-19T00:36:25.365Z,30.77
2023-04-19T00:38:55.609Z,30.78
2023-04-19T00:41:26.127Z,30.80
2023-04-19T00:43:56.256Z,30.82
2023-04-19T00:46:27.150Z,30.82
2023-04-19T00:48:57.909Z,30.83
2023-04-19T00:51:29.518Z,30.86
2023-04-19T00:54:00.080Z,30.86
2023-04-19T00:56:31.326Z,30.86
2023-04-19T00:59:01.680Z,30.89
2023-04-19T01:01:31.965Z,30.90
2023-04-19T01:04:03.273Z,30.91
2023-04-19T01:06:33.901Z,30.93
2023-04-19T01:09:04.357Z,30.93
2023-04-19T01:11:34.887Z,30.94
2023-04-19T01:14:05.192Z,30.96
2023-04-19T01:16:35.880Z,30.98
2023-04-19T01:19:06.146Z,30.99
2023-04-19T01:21:40.756Z,31.01
2023-04-19T01:24:11.192Z,31.03
2023-04-19T01:26:41.778Z,31.04
2023-04-19T01:29:11.928Z,31.05
2023-04-19T01:31:42.367Z,31.06
2023-04-19T01:34:12.815Z,31.08
2023-04-19T01:36:43.029Z,31.10
2023-04-19T01:39:13.552Z,31.12
2023-04-19T01:41:43.768Z,31.13
2023-04-19T01:44:14.283Z,31.16
2023-04-19T01:46:44.762Z,31.19
2023-04-19T01:49:16.205Z,31.21
2023-04-19T01:51:47.286Z,31.23
2023-04-19T01:54:17.779Z,31.24
2023-04-19T01:56:48.692Z,31.26
2023-04-19T01:59:19.205Z,31.27
2023-04-19T02:01:49.441Z,31.29
2023-04-19T02:04:23.444Z,31.31
2023-04-19T02:06:53.824Z,31.33
2023-04-19T02:09:24.307Z,31.34
2023-04-19T02:11:54.697Z,31.37
2023-04-19T02:14:24.878Z,31.37
2023-04-19T02:16:56.421Z,31.40
2023-04-19T02:19:26.770Z,31.41
2023-04-19T02:21:59.282Z,31.41
2023-04-19T02:24:29.813Z,31.45
2023-04-19T02:27:00.212Z,31.46
2023-04-19T02:29:30.535Z,31.48
2023-04-19T02:32:01.300Z,31.48
2023-04-19T02:34:31.872Z,31.51
2023-04-19T02:37:06.294Z,31.53
2023-04-19T02:39:36.372Z,31.54
2023-04-19T02:42:07.152Z,31.56
2023-04-19T02:44:37.336Z,31.58
2023-04-19T02:47:07.771Z,31.60
2023-04-19T02:49:42.725Z,31.63
2023-04-19T02:52:14.089Z,31.64
2023-04-19T02:54:44.830Z,31.66
2023-04-19T02:57:15.195Z,31.67
2023-04-19T02:59:46.832Z,31.67
2023-04-19T03:02:18.227Z,31.70
2023-04-19T03:04:48.795Z,31.72
2023-04-19T03:07:18.968Z,31.74
2023-04-19T03:09:49.222Z,31.76
2023-04-19T03:12:19.404Z,31.78
2023-04-19T03:14:50.764Z,31.80
2023-04-19T03:17:20.899Z,31.82
2023-04-19T03:19:51.776Z,31.85
2023-04-19T03:22:23.271Z,31.86
2023-04-19T03:24:53.341Z,31.86
2023-04-19T03:27:26.209Z,31.91
2023-04-19T03:30:01.759Z,31.95
2023-04-19T03:32:34.002Z,31.96
2023-04-19T03:35:05.218Z,31.98
2023-04-19T03:37:35.585Z,32.01
2023-04-19T03:40:07.170Z,32.03
2023-04-19T03:42:37.749Z,32.05
2023-04-19T03:45:18.385Z,32.09
2023-04-19T03:47:53.736Z,32.09
2023-04-19T03:50:24.059Z,32.13
2023-04-19T03:52:57.074Z,32.16
2023-04-19T03:55:28.138Z,32.18
2023-04-19T03:57:58.328Z,32.21
2023-04-19T04:00:39.561Z,32.22
2023-04-19T04:03:10.082Z,32.25
2023-04-19T04:05:41.374Z,32.28
2023-04-19T04:08:12.792Z,32.30
2023-04-19T04:10:43.851Z,32.33
2023-04-19T04:13:14.635Z,32.33
2023-04-19T04:16:04.988Z,32.37
2023-04-19T04:18:36.372Z,32.40
2023-04-19T04:21:09.630Z,32.42
2023-04-19T04:23:43.414Z,32.44
2023-04-19T04:26:21.476Z,32.47
2023-04-19T04:29:11.345Z,32.49
2023-04-19T04:31:45.065Z,32.52
2023-04-19T04:34:16.710Z,32.56
2023-04-19T04:36:54.831Z,32.57
2023-04-19T04:39:26.462Z,32.60
2023-04-19T04:41:59.097Z,32.62
2023-04-19T04:44:30.625Z,32.63
2023-04-19T04:47:00.984Z,32.63
2023-04-19T04:49:34.951Z,32.65
2023-04-19T04:52:05.350Z,32.68
2023-04-19T04:54:42.703Z,32.71
2023-04-19T04:57:23.243Z,32.73
2023-04-19T04:59:53.383Z,32.74
2023-04-19T05:02:25.540Z,32.76
2023-04-19T05:04:56.454Z,32.78
2023-04-19T05:07:26.864Z,32.82
2023-04-19T05:09:58.489Z,32.85
2023-04-19T05:12:35.667Z,32.87
2023-04-19T05:15:06.107Z,32.90
2023-04-19T05:17:37.081Z,32.92
2023-04-19T05:20:07.801Z,32.95
2023-04-19T05:22:39.571Z,32.97
2023-04-19T05:25:12.999Z,32.99
2023-04-19T05:27:44.246Z,33.02
2023-04-19T05:30:14.928Z,33.05
2023-04-19T05:32:48.052Z,33.07
2023-04-19T05:35:21.462Z,33.10
2023-04-19T05:37:51.730Z,33.13
2023-04-19T05:40:21.940Z,33.15
2023-04-19T05:42:52.141Z,33.19
2023-04-19T05:45:23.419Z,33.21
2023-04-19T05:47:53.974Z,33.23
2023-04-19T05:50:50.179Z,33.26
2023-04-19T05:53:39.550Z,33.28
2023-04-19T05:56:09.926Z,33.32
2023-04-19T05:58:40.979Z,33.34
2023-04-19T06:01:11.481Z,33.36
2023-04-19T06:03:41.979Z,33.38
2023-04-19T06:06:12.640Z,33.40
2023-04-19T06:08:43.394Z,33.42
2023-04-19T06:11:23.289Z,33.47
2023-04-19T06:13:57.078Z,33.49
2023-04-19T06:16:28.347Z,33.50
2023-04-19T06:18:58.970Z,33.51
2023-04-19T06:21:31.750Z,33.56
2023-04-19T06:24:02.136Z,33.59
2023-04-19T06:26:32.514Z,33.59
2023-04-19T06:29:23.433Z,33.62
2023-04-19T06:32:13.304Z,33.66
2023-04-19T06:35:02.122Z,33.67
2023-04-19T06:37:51.941Z,33.69
2023-04-19T06:40:22.654Z,33.70
2023-04-19T06:42:53.540Z,33.71
2023-04-19T06:45:24.098Z,33.71
2023-04-19T06:47:55.465Z,33.74
2023-04-19T06:50:26.121Z,33.75
2023-04-19T06:52:56.785Z,33.76
2023-04-19T06:55:27.537Z,33.78
2023-04-19T06:57:58.381Z,33.81
2023-04-19T07:00:29.085Z,33.81
2023-04-19T07:03:01.387Z,33.84
2023-04-19T07:05:32.848Z,33.89
2023-04-19T07:08:03.401Z,33.92
2023-04-19T07:10:33.801Z,33.92
2023-04-19T07:13:04.219Z,33.95
2023-04-19T07:15:34.637Z,33.97
2023-04-19T07:18:05.150Z,34.00
2023-04-19T07:20:35.974Z,34.05
2023-04-19T07:23:06.495Z,34.08
2023-04-19T07:25:37.016Z,34.10
2023-04-19T07:28:07.789Z,34.13
2023-04-19T07:30:38.691Z,33.74
2023-04-19T07:33:10.301Z,34.18
2023-04-19T07:35:43.666Z,34.19
2023-04-19T07:38:14.451Z,34.21
2023-04-19T07:40:44.963Z,34.23
2023-04-19T07:43:16.592Z,34.25
2023-04-19T07:45:47.524Z,34.26
2023-04-19T07:48:17.984Z,34.28
2023-04-19T07:50:48.324Z,34.29
2023-04-19T07:53:19.754Z,34.31
2023-04-19T07:55:50.044Z,34.33
2023-04-19T07:58:20.861Z,34.35
2023-04-19T08:00:51.921Z,34.37
2023-04-19T08:03:23.958Z,34.39
2023-04-19T08:05:55.499Z,34.40
2023-04-19T08:08:27.501Z,34.42
2023-04-19T08:10:58.455Z,34.43
2023-04-19T08:13:30.627Z,34.44
2023-04-19T08:18:37.834Z,34.51
2023-04-19T08:21:08.512Z,34.52
2023-04-19T08:23:47.903Z,34.53
2023-04-19T08:26:19.152Z,34.56
2023-04-19T08:28:53.834Z,34.57
2023-04-19T08:31:24.505Z,34.60
2023-04-19T08:33:54.953Z,34.61
2023-04-19T08:36:36.999Z,34.64
2023-04-19T08:39:17.647Z,34.65
2023-04-19T08:42:07.052Z,34.64
2023-04-19T08:44:54.306Z,34.65
2023-04-19T08:47:34.284Z,34.68
2023-04-19T08:50:20.636Z,34.70
2023-04-19T08:55:40.470Z,34.72
2023-04-19T08:58:26.291Z,34.73
2023-04-19T09:01:06.240Z,34.74
2023-04-19T09:03:47.565Z,34.75
2023-04-19T09:06:21.787Z,34.75
2023-04-19T09:08:59.427Z,34.75
2023-04-19T09:11:40.174Z,34.78
2023-04-19T09:14:11.261Z,34.56
2023-04-19T09:16:41.573Z,34.41
2023-04-19T09:19:23.165Z,34.31
2023-04-19T09:21:56.866Z,34.28
2023-04-19T09:27:16.507Z,34.20
2023-04-19T09:29:54.838Z,34.17
2023-04-19T09:32:26.023Z,34.16
2023-04-19T09:34:57.432Z,34.10
2023-04-19T09:40:02.215Z,34.08
2023-04-19T09:45:29.666Z,34.09
2023-04-19T09:48:05.162Z,34.08
2023-04-19T09:50:50.993Z,34.05
2023-04-19T09:53:26.423Z,34.05
2023-04-19T09:56:02.141Z,34.00
2023-04-19T09:58:48.872Z,34.01
2023-04-19T10:01:21.872Z,34.00
2023-04-19T10:03:52.998Z,33.98
2023-04-19T10:08:57.954Z,33.95
2023-04-19T10:11:28.881Z,33.95
2023-04-19T10:14:00.875Z,33.92
2023-04-19T10:16:32.878Z,33.91
2023-04-19T10:19:08.236Z,33.91
2023-04-19T10:21:40.469Z,33.90
2023-04-19T10:24:11.415Z,33.88
2023-04-19T10:27:00.418Z,33.93
2023-04-19T10:29:49.340Z,34.05
2023-04-19T10:32:19.847Z,34.16
2023-04-19T10:34:51.049Z,34.21
2023-04-19T10:37:23.984Z,34.25
2023-04-19T10:39:54.362Z,34.30
2023-04-19T10:42:24.672Z,34.34
2023-04-19T10:45:13.229Z,34.36
2023-04-19T10:47:46.731Z,34.38
2023-04-19T10:50:19.225Z,34.37
2023-04-19T10:52:49.918Z,34.38
2023-04-19T10:55:23.236Z,34.38
2023-04-19T10:58:09.123Z,34.39
2023-04-19T11:00:39.973Z,34.39
2023-04-19T11:03:28.930Z,34.38
2023-04-19T11:06:28.735Z,34.38
2023-04-19T11:08:59.012Z,34.37
2023-04-19T11:11:30.543Z,34.38
2023-04-19T11:14:03.898Z,34.35
2023-04-19T11:16:45.116Z,34.33
2023-04-19T11:19:20.433Z,34.33
2023-04-19T11:21:51.139Z,34.32
2023-04-19T11:24:22.231Z,34.29
2023-04-19T11:26:55.285Z,34.28
2023-04-19T11:29:26.895Z,34.28
2023-04-19T11:32:03.223Z,34.24
2023-04-19T11:34:41.240Z,34.23
2023-04-19T11:37:13.216Z,34.23
2023-04-19T11:39:49.306Z,34.23
2023-04-19T11:42:21.710Z,34.22
2023-04-19T11:44:55.284Z,34.20
2023-04-19T11:47:27.124Z,34.20
2023-04-19T11:49:58.509Z,34.16
2023-04-19T11:52:29.401Z,34.11
2023-04-19T11:55:26.051Z,33.94
2023-04-19T11:57:56.393Z,33.84
2023-04-19T12:00:30.669Z,33.75
2023-04-19T12:03:01.906Z,33.69
2023-04-19T12:06:12.910Z,33.63
2023-04-19T12:08:49.848Z,33.59
2023-04-19T12:11:21.452Z,33.55
2023-04-19T12:14:16.317Z,33.54
2023-04-19T12:17:22.252Z,33.52
2023-04-19T12:19:53.673Z,33.52
2023-04-19T12:22:25.715Z,33.48
2023-04-19T12:24:57.415Z,33.46
2023-04-19T12:27:27.695Z,33.47
2023-04-19T12:29:58.097Z,33.38
2023-04-19T12:32:38.043Z,33.20
2023-04-19T12:35:08.933Z,33.04
2023-04-19T12:37:39.500Z,32.92
2023-04-19T12:40:10.105Z,32.81
2023-04-19T12:42:40.742Z,32.73
2023-04-19T12:45:11.575Z,32.67
2023-04-19T12:47:43.048Z,32.64
2023-04-19T12:50:14.637Z,32.56
2023-04-19T12:52:45.156Z,32.40
2023-04-19T12:55:15.626Z,32.34
2023-04-19T12:57:46.296Z,32.29
2023-04-19T13:00:26.407Z,32.22
2023-04-19T13:02:56.797Z,32.17
2023-04-19T13:05:27.133Z,32.09
2023-04-19T13:08:10.474Z,32.04
2023-04-19T13:10:46.793Z,31.99
2023-04-19T13:13:23.335Z,31.92
2023-04-19T13:16:01.839Z,31.87
2023-04-19T13:18:34.538Z,31.86
2023-04-19T13:21:06.647Z,31.78
2023-04-19T13:23:38.420Z,31.80
2023-04-19T13:26:09.103Z,31.76
2023-04-19T13:28:58.014Z,31.72
2023-04-19T13:31:48.528Z,31.68
2023-04-19T13:34:36.832Z,31.60
2023-04-19T13:37:22.415Z,31.57
2023-04-19T13:40:18.141Z,31.52
2023-04-19T13:42:50.542Z,31.50
2023-04-19T13:45:20.974Z,31.45
2023-04-19T13:47:51.592Z,31.41
2023-04-19T13:50:56.494Z,31.40
2023-04-19T13:53:27.982Z,31.39
2023-04-19T13:55:59.284Z,31.36
2023-04-19T13:58:30.569Z,31.35
2023-04-19T14:01:01.569Z,31.33
2023-04-19T14:03:33.241Z,31.28
2023-04-19T14:06:03.833Z,31.25
2023-04-19T14:08:51.197Z,31.20
2023-04-19T14:11:47.795Z,31.11
2023-04-19T14:14:33.323Z,31.10
2023-04-19T14:17:03.872Z,31.08
2023-04-19T14:19:34.481Z,31.05
2023-04-19T14:22:05.319Z,31.03
2023-04-19T14:24:36.377Z,30.97
2023-04-19T14:27:10.261Z,30.94
2023-04-19T14:29:42.045Z,30.91
2023-04-19T14:32:25.106Z,30.92
2023-04-19T14:34:57.649Z,30.87
2023-04-19T14:37:28.480Z,30.83
2023-04-19T14:39:59.223Z,30.80
2023-04-19T14:42:29.708Z,30.78
2023-04-19T14:45:00.539Z,30.75
2023-04-19T14:47:31.336Z,30.71
2023-04-19T14:50:02.492Z,30.71
2023-04-19T14:52:33.323Z,30.65
2023-04-19T14:55:04.022Z,30.64
2023-04-19T14:57:34.936Z,30.64
2023-04-19T15:00:05.657Z,30.62
2023-04-19T15:02:36.790Z,30.64
2023-04-19T15:05:08.090Z,30.62
2023-04-19T15:07:39.989Z,30.60
2023-04-19T15:10:11.504Z,30.61
2023-04-19T15:12:42.089Z,30.61
2023-04-19T15:15:13.193Z,30.61
2023-04-19T15:17:44.707Z,30.61
2023-04-19T15:20:15.346Z,30.62
2023-04-19T15:22:45.935Z,30.64
2023-04-19T15:25:17.169Z,30.61
2023-04-19T15:27:47.827Z,30.64
2023-04-19T15:30:20.619Z,30.68
2023-04-19T15:32:51.308Z,30.71
2023-04-19T15:35:21.780Z,30.71
2023-04-19T15:37:52.466Z,30.73
2023-04-19T15:40:24.585Z,30.75
2023-04-19T15:42:55.058Z,30.52
2023-04-19T15:45:25.598Z,30.72
2023-04-19T15:47:56.010Z,30.71
2023-04-19T15:50:26.444Z,30.69
2023-04-19T15:52:56.896Z,30.67
2023-04-19T15:55:27.457Z,30.64
2023-04-19T15:57:57.798Z,30.64
2023-04-19T16:00:28.542Z,30.64
2023-04-19T16:02:59.233Z,30.61
2023-04-19T16:05:29.898Z,30.60
2023-04-19T16:08:04.223Z,30.58
2023-04-19T16:10:35.444Z,30.58
2023-04-19T16:13:07.348Z,30.55
2023-04-19T16:15:37.746Z,30.58
2023-04-19T16:18:08.301Z,30.54
2023-04-19T16:20:39.428Z,30.54
2023-04-19T16:23:10.379Z,30.53
2023-04-19T16:25:42.669Z,30.51
2023-04-19T16:28:13.705Z,30.50
2023-04-19T16:30:44.137Z,30.48
2023-04-19T16:33:14.662Z,30.47
2023-04-19T16:35:45.169Z,30.46
2023-04-19T16:38:15.870Z,30.43
2023-04-19T16:40:49.242Z,30.42
2023-04-19T16:43:22.257Z,30.39
2023-04-19T16:45:53.145Z,30.36
2023-04-19T16:48:24.296Z,30.37
2023-04-19T16:50:54.760Z,30.34
2023-04-19T16:53:25.184Z,30.34
2023-04-19T16:55:56.623Z,30.32
2023-04-19T16:58:27.070Z,30.30
2023-04-19T17:00:59.708Z,30.26
2023-04-19T17:03:31.954Z,30.26
2023-04-19T17:06:02.770Z,30.26
2023-04-19T17:08:32.965Z,30.22
2023-04-19T17:11:03.249Z,30.21
2023-04-19T17:13:33.728Z,30.20
2023-04-19T17:16:04.608Z,30.19
2023-04-19T17:18:35.149Z,30.17
2023-04-19T17:21:06.116Z,30.15
2023-04-19T17:23:36.445Z,30.18
2023-04-19T17:26:07.269Z,30.16
2023-04-19T17:28:37.616Z,30.15
2023-04-19T17:31:08.278Z,30.13
2023-04-19T17:33:40.239Z,30.11
2023-04-19T17:36:10.908Z,30.11
2023-04-19T17:38:41.299Z,30.11
2023-04-19T17:41:17.576Z,30.09
2023-04-19T17:43:49.155Z,30.07
2023-04-19T17:46:20.655Z,30.05
2023-04-19T17:48:50.912Z,30.04
2023-04-19T17:51:21.227Z,30.01
2023-04-19T17:53:53.116Z,30.01
2023-04-19T17:56:23.852Z,30.01
2023-04-19T17:58:54.097Z,29.98
2023-04-19T18:01:24.459Z,29.95
2023-04-19T18:03:54.883Z,29.96
2023-04-19T18:06:25.424Z,29.93
2023-04-19T18:08:55.735Z,29.90
2023-04-19T18:11:27.802Z,29.87
2023-04-19T18:13:59.296Z,29.84
2023-04-19T18:16:29.667Z,29.83
2023-04-19T18:19:00.006Z,29.84
2023-04-19T18:21:30.530Z,29.83
2023-04-19T18:24:01.157Z,29.80
2023-04-19T18:26:41.981Z,29.81
2023-04-19T18:29:14.010Z,29.82
2023-04-19T18:31:44.427Z,29.79
2023-04-19T18:34:15.361Z,29.80
2023-04-19T18:36:45.545Z,29.79
2023-04-19T18:39:15.995Z,29.79
2023-04-19T18:41:46.496Z,29.78
2023-04-19T18:44:39.048Z,29.77
2023-04-19T18:47:07.204Z,29.75
2023-04-19T18:49:37.712Z,29.74
2023-04-19T18:52:08.152Z,29.72
2023-04-19T18:54:39.313Z,29.74
2023-04-19T18:57:22.811Z,29.70
2023-04-19T18:59:53.488Z,29.71
2023-04-19T19:02:23.896Z,29.69
2023-04-19T19:04:58.536Z,29.67
2023-04-19T19:07:36.859Z,29.68
2023-04-19T19:12:42.534Z,29.65
2023-04-19T19:15:12.863Z,29.66
2023-04-19T19:17:43.302Z,29.64
2023-04-19T19:20:13.873Z,29.64
2023-04-19T19:22:44.362Z,29.63
2023-04-19T19:25:14.978Z,29.60
2023-04-19T19:28:02.905Z,29.61
2023-04-19T19:30:37.141Z,29.60
2023-04-19T19:33:07.795Z,29.58
2023-04-19T19:35:39.671Z,29.58
2023-04-19T19:38:10.277Z,29.58
2023-04-19T19:40:59.417Z,29.57
2023-04-19T19:43:31.173Z,29.58
2023-04-19T19:46:04.264Z,29.56
2023-04-19T19:48:40.840Z,29.55
2023-04-19T19:51:47.578Z,28.90
2023-04-19T19:54:03.006Z,29.56
2023-04-19T19:56:34.938Z,29.55
2023-04-19T19:59:05.512Z,29.55
2023-04-19T20:01:36.315Z,29.54
2023-04-19T20:04:08.499Z,29.55
2023-04-19T20:09:25.017Z,29.53
2023-04-19T20:11:55.332Z,29.51
2023-04-19T20:14:26.098Z,29.51
2023-04-19T20:16:56.387Z,29.49
2023-04-19T20:19:27.726Z,29.48
2023-04-19T20:21:58.214Z,29.48
2023-04-19T20:24:28.966Z,29.48
2023-04-19T20:26:59.312Z,29.46
2023-04-19T20:29:29.594Z,29.45
2023-04-19T20:31:59.779Z,29.44
2023-04-19T20:34:29.990Z,29.43
2023-04-19T20:37:00.285Z,29.43
2023-04-19T20:39:30.431Z,29.42
2023-04-19T20:42:00.538Z,29.41
2023-04-19T20:44:30.855Z,29.41
2023-04-19T20:47:01.283Z,29.38
2023-04-19T20:49:31.470Z,29.39
2023-04-19T20:52:01.794Z,29.37
2023-04-19T20:54:31.970Z,29.37
2023-04-19T20:57:04.493Z,29.38
2023-04-19T20:59:34.808Z,29.37
2023-04-19T21:02:05.499Z,29.37
2023-04-19T21:04:53.763Z,29.36
2023-04-19T21:07:24.448Z,29.36
2023-04-19T21:09:54.547Z,29.36
2023-04-19T21:12:24.792Z,29.35
2023-04-19T21:14:55.378Z,29.33
2023-04-19T21:17:25.681Z,29.34
2023-04-19T21:19:56.323Z,29.33
2023-04-19T21:22:26.522Z,29.34
2023-04-19T21:24:56.671Z,29.33
2023-04-19T21:27:26.841Z,29.32
2023-04-19T21:29:56.943Z,29.32
2023-04-19T21:32:29.666Z,29.30
2023-04-19T21:35:00.993Z,29.31
2023-04-19T21:37:31.318Z,29.32
2023-04-19T21:40:01.863Z,29.30
2023-04-19T21:42:32.630Z,29.31
2023-04-19T21:45:03.321Z,29.30
2023-04-19T21:47:33.599Z,29.30
2023-04-19T21:50:03.818Z,29.28
2023-04-19T21:52:33.995Z,29.30
2023-04-19T21:55:04.280Z,29.28
2023-04-19T21:57:34.358Z,29.27
2023-04-19T22:00:06.239Z,29.26
2023-04-19T22:02:36.881Z,29.25
2023-04-19T22:05:08.797Z,29.25
2023-04-19T22:07:42.025Z,29.26
2023-04-19T22:10:14.846Z,29.22
2023-04-19T22:12:57.331Z,29.23
2023-04-19T22:15:29.289Z,29.21
2023-04-19T22:18:00.065Z,29.20
2023-04-19T22:20:30.486Z,29.17
2023-04-19T22:23:00.665Z,29.19
2023-04-19T22:25:31.425Z,29.17
2023-04-19T22:28:01.711Z,29.17
2023-04-19T22:30:31.835Z,29.15
2023-04-19T22:33:02.456Z,29.13
2023-04-19T22:35:32.741Z,29.13
2023-04-19T22:38:03.061Z,29.12
2023-04-19T22:40:33.523Z,29.11
2023-04-19T22:43:04.252Z,29.09
2023-04-19T22:45:34.468Z,29.08
2023-04-19T22:48:04.715Z,29.08
2023-04-19T22:50:35.122Z,29.07
2023-04-19T22:53:05.398Z,29.07
2023-04-19T22:55:36.203Z,29.05
2023-04-19T22:58:06.371Z,29.03
2023-04-19T23:00:37.496Z,29.02
2023-04-19T23:03:08.746Z,29.06
2023-04-19T23:05:38.945Z,29.14
2023-04-19T23:08:09.157Z,29.24
2023-04-19T23:10:39.542Z,29.32
2023-04-19T23:13:11.866Z,29.42
2023-04-19T23:15:42.081Z,29.48
2023-04-19T23:18:13.020Z,29.56
2023-04-19T23:20:43.635Z,29.63
2023-04-19T23:23:13.747Z,29.67
2023-04-19T23:25:44.087Z,29.76
2023-04-19T23:28:14.425Z,29.83
2023-04-19T23:30:45.112Z,29.90
2023-04-19T23:33:15.488Z,29.94
2023-04-19T23:35:45.684Z,29.97
2023-04-19T23:38:15.757Z,30.05
2023-04-19T23:40:46.146Z,30.19
2023-04-19T23:43:16.523Z,30.30
2023-04-19T23:45:46.697Z,30.39
2023-04-19T23:48:17.123Z,30.47
2023-04-19T23:50:47.688Z,30.54
2023-04-19T23:53:17.913Z,30.60
2023-04-19T23:55:48.077Z,30.64
2023-04-19T23:58:18.345Z,30.68
